This is the latest recevied weather packets stored in our database for station/object FW7644. If no packets are shown the sender has not sent any weather packets the latest 10 day(s).
| Time | Temp. | Humidity | Pressure | Rain* | Wind** | Luminosity | Snow |
|---|---|---|---|---|---|---|---|
| 1777560125 | 18.89° C | 79% | 1020.2 hPa | 0 mm | - | - | - |
| 1777559824 | 18.89° C | 78% | 1020.3 hPa | 0 mm | - | - | - |
| 1777559522 | 18.89° C | 77% | 1020.4 hPa | 0 mm | - | - | - |
| 1777559220 | 19.44° C | 75% | 1020.5 hPa | 0 mm | - | - | - |
| 1777558919 | 20° C | 75% | 1020.5 hPa | 0 mm | - | - | - |
| 1777558616 | 20° C | 75% | 1020.5 hPa | 0 mm | - | - | - |
| 1777558314 | 20° C | 74% | 1020.5 hPa | 0 mm | - | - | - |
| 1777558012 | 19.44° C | 75% | 1020.6 hPa | 0 mm | - | - | - |
| 1777557710 | 19.44° C | 77% | 1020.7 hPa | 0 mm | - | - | - |
| 1777557408 | 18.89° C | 80% | 1020.7 hPa | 0 mm | - | - | - |
| 1777557105 | 18.89° C | 78% | 1020.8 hPa | 0 mm | - | - | - |
| 1777556801 | 18.89° C | 76% | 1020.9 hPa | 0 mm | - | - | - |
| 1777556498 | 19.44° C | 75% | 1020.9 hPa | 0 mm | - | - | - |
| 1777556196 | 19.44° C | 78% | 1020.8 hPa | 0 mm | - | - | - |
| 1777555895 | 18.89° C | 79% | 1020.8 hPa | 0 mm | - | - | - |
| 1777555593 | 18.89° C | 80% | 1020.8 hPa | 0 mm | - | - | - |
| 1777555291 | 18.33° C | 84% | 1020.9 hPa | 0 mm | - | - | - |
| 1777554988 | 17.78° C | 85% | 1020.9 hPa | 0 mm | - | - | - |
| 1777554681 | 17.22° C | 86% | 1020.9 hPa | 0 mm | - | - | - |
| 1777554380 | 17.22° C | 87% | 1021 hPa | 0 mm | - | - | - |
| 1777554078 | 17.22° C | 89% | 1021.1 hPa | 0 mm | - | - | - |
| 1777553776 | 16.67° C | 91% | 1021 hPa | 0 mm | - | - | - |
| 1777553473 | 16.67° C | 93% | 1021 hPa | 0 mm | - | - | - |
| 1777553171 | 16.11° C | 94% | 1021.1 hPa | 0 mm | - | - | - |
| 1777552869 | 16.11° C | 96% | 1020.9 hPa | 0 mm | - | - | - |
* Rain latest hour (hover to see other rain measurements)
** Current wind speed in m/s (hover to see current wind gust speed)